createdAt,value
2023-04-27T00:00:48.108Z,46.75
2023-04-27T00:03:14.574Z,46.87
2023-04-27T00:05:41.169Z,47.00
2023-04-27T00:08:07.525Z,47.13
2023-04-27T00:10:33.814Z,46.62
2023-04-27T00:13:00.044Z,46.10
2023-04-27T00:15:26.294Z,46.06
2023-04-27T00:17:52.709Z,46.25
2023-04-27T00:20:19.015Z,46.06
2023-04-27T00:22:45.241Z,46.08
2023-04-27T00:25:11.488Z,46.27
2023-04-27T00:27:37.744Z,46.03
2023-04-27T00:30:04.059Z,46.12
2023-04-27T00:32:30.370Z,46.01
2023-04-27T00:34:56.707Z,46.04
2023-04-27T00:37:22.983Z,45.42
2023-04-27T00:39:49.222Z,45.51
2023-04-27T00:42:15.458Z,46.04
2023-04-27T00:44:41.681Z,46.65
2023-04-27T00:47:07.978Z,46.54
2023-04-27T00:49:34.242Z,46.58
2023-04-27T00:52:01.569Z,47.13
2023-04-27T00:54:27.806Z,46.70
2023-04-27T00:56:54.039Z,46.82
2023-04-27T00:59:20.292Z,47.55
2023-04-27T01:01:46.660Z,48.06
2023-04-27T01:04:13.091Z,48.79
2023-04-27T01:06:39.527Z,48.61
2023-04-27T01:09:05.857Z,47.70
2023-04-27T01:11:32.180Z,47.49
2023-04-27T01:13:58.481Z,47.50
2023-04-27T01:16:24.837Z,47.65
2023-04-27T01:18:51.104Z,47.81
2023-04-27T01:21:17.355Z,47.49
2023-04-27T01:23:43.624Z,47.66
2023-04-27T01:26:09.906Z,47.71
2023-04-27T01:28:36.185Z,47.98
2023-04-27T01:31:02.494Z,48.34
2023-04-27T01:33:28.793Z,48.39
2023-04-27T01:35:55.128Z,47.51
2023-04-27T01:38:21.435Z,47.92
2023-04-27T01:40:47.696Z,48.06
2023-04-27T01:43:13.963Z,47.94
2023-04-27T01:45:40.286Z,48.06
2023-04-27T01:48:06.658Z,48.12
2023-04-27T01:50:32.948Z,48.52
2023-04-27T01:52:59.197Z,48.39
2023-04-27T01:55:25.450Z,48.47
2023-04-27T01:57:51.713Z,48.76
2023-04-27T02:00:18.021Z,48.72
2023-04-27T02:02:44.429Z,50.49
2023-04-27T02:05:10.804Z,49.78
2023-04-27T02:07:37.067Z,50.46
2023-04-27T02:10:03.373Z,50.04
2023-04-27T02:12:29.617Z,50.32
2023-04-27T02:14:55.890Z,50.46
2023-04-27T02:17:22.227Z,50.34
2023-04-27T02:19:48.485Z,49.97
2023-04-27T02:22:14.740Z,50.43
2023-04-27T02:24:40.995Z,50.66
2023-04-27T02:27:07.249Z,51.37
2023-04-27T02:29:33.982Z,52.22
2023-04-27T02:32:00.658Z,52.13
2023-04-27T02:34:26.945Z,51.65
2023-04-27T02:36:53.206Z,51.77
2023-04-27T02:39:19.461Z,51.75
2023-04-27T02:41:45.713Z,52.23
2023-04-27T02:44:12.060Z,51.13
2023-04-27T02:46:38.356Z,50.98
2023-04-27T02:49:04.663Z,49.34
2023-04-27T02:51:30.915Z,48.90
2023-04-27T02:53:57.183Z,48.87
2023-04-27T02:56:23.509Z,49.77
2023-04-27T02:58:49.852Z,50.12
2023-04-27T03:01:16.165Z,50.70
2023-04-27T03:03:42.597Z,50.61
2023-04-27T03:06:09.809Z,50.46
2023-04-27T03:08:36.142Z,50.74
2023-04-27T03:11:02.405Z,51.18
2023-04-27T03:13:28.684Z,51.04
2023-04-27T03:15:54.963Z,51.11
2023-04-27T03:18:21.236Z,51.03
2023-04-27T03:20:47.504Z,49.31
2023-04-27T03:23:13.770Z,49.13
2023-04-27T03:25:40.024Z,49.84
2023-04-27T03:28:06.289Z,50.06
2023-04-27T03:30:32.688Z,50.47
2023-04-27T03:32:59.014Z,50.92
2023-04-27T03:35:25.355Z,50.59
2023-04-27T03:37:51.601Z,50.45
2023-04-27T03:40:17.898Z,50.81
2023-04-27T03:42:44.289Z,51.21
2023-04-27T03:45:10.559Z,51.54
2023-04-27T03:47:36.860Z,52.36
2023-04-27T03:50:03.124Z,52.37
2023-04-27T03:52:29.422Z,52.54
2023-04-27T03:54:55.743Z,51.40
2023-04-27T03:57:21.972Z,50.35
2023-04-27T03:59:48.262Z,50.62
2023-04-27T04:02:14.634Z,50.31
2023-04-27T04:04:41.109Z,50.77
2023-04-27T04:07:07.595Z,51.30
2023-04-27T04:09:33.846Z,51.62
2023-04-27T04:12:00.121Z,51.13
2023-04-27T04:14:26.364Z,50.77
2023-04-27T04:16:52.632Z,50.60
2023-04-27T04:19:20.741Z,51.24
2023-04-27T04:21:48.340Z,51.16
2023-04-27T04:24:14.689Z,50.87
2023-04-27T04:26:40.940Z,50.72
2023-04-27T04:29:08.861Z,50.47
2023-04-27T04:31:36.537Z,51.33
2023-04-27T04:34:02.804Z,51.70
2023-04-27T04:36:29.059Z,50.54
2023-04-27T04:38:55.309Z,49.88
2023-04-27T04:41:21.580Z,49.73
2023-04-27T04:43:47.808Z,50.40
2023-04-27T04:46:14.098Z,49.90
2023-04-27T04:48:40.420Z,49.84
2023-04-27T04:51:06.674Z,49.88
2023-04-27T04:53:32.913Z,50.58
2023-04-27T04:55:59.200Z,51.12
2023-04-27T04:58:25.449Z,51.44
2023-04-27T05:00:51.702Z,51.34
2023-04-27T05:03:18.155Z,50.56
2023-04-27T05:05:44.531Z,49.87
2023-04-27T05:08:10.766Z,50.67
2023-04-27T05:10:37.006Z,49.30
2023-04-27T05:13:05.258Z,49.18
2023-04-27T05:15:32.833Z,48.97
2023-04-27T05:17:59.162Z,49.48
2023-04-27T05:20:26.418Z,50.90
2023-04-27T05:22:52.684Z,50.98
2023-04-27T05:25:18.930Z,51.31
2023-04-27T05:27:45.192Z,52.43
2023-04-27T05:30:11.508Z,52.40
2023-04-27T05:32:37.881Z,52.00
2023-04-27T05:35:04.228Z,52.65
2023-04-27T05:37:30.518Z,52.33
2023-04-27T05:39:56.779Z,53.54
2023-04-27T05:42:23.032Z,53.04
2023-04-27T05:44:49.494Z,52.53
2023-04-27T05:47:15.853Z,52.21
2023-04-27T05:49:42.122Z,51.50
2023-04-27T05:52:08.383Z,50.60
2023-04-27T05:54:34.647Z,50.84
2023-04-27T05:57:00.882Z,51.65
2023-04-27T05:59:27.153Z,51.62
2023-04-27T06:01:53.460Z,51.41
2023-04-27T06:04:21.339Z,51.59
2023-04-27T06:06:48.072Z,52.46
2023-04-27T06:09:14.639Z,51.00
2023-04-27T06:11:41.340Z,51.28
2023-04-27T06:14:08.695Z,50.39
2023-04-27T06:16:35.255Z,50.83
2023-04-27T06:19:01.802Z,50.35
2023-04-27T06:21:28.351Z,51.35
2023-04-27T06:23:54.767Z,50.33
2023-04-27T06:26:21.234Z,50.33
2023-04-27T06:28:47.666Z,50.70
2023-04-27T06:31:14.181Z,50.21
2023-04-27T06:33:40.654Z,51.30
2023-04-27T06:36:07.119Z,51.02
2023-04-27T06:38:33.572Z,51.32
2023-04-27T06:41:00.245Z,51.06
2023-04-27T06:43:26.835Z,50.29
2023-04-27T06:45:53.317Z,49.32
2023-04-27T06:48:19.821Z,48.61
2023-04-27T06:50:46.260Z,48.08
2023-04-27T06:53:14.710Z,48.39
2023-04-27T06:55:43.448Z,47.55
2023-04-27T06:58:10.747Z,47.59
2023-04-27T07:00:37.128Z,46.18
2023-04-27T07:03:03.669Z,47.98
2023-04-27T07:05:30.059Z,45.49
2023-04-27T07:07:56.342Z,46.35
2023-04-27T07:10:22.877Z,47.30
2023-04-27T07:12:49.108Z,46.46
2023-04-27T07:15:15.384Z,46.25
2023-04-27T07:17:41.752Z,45.60
2023-04-27T07:20:08.079Z,45.34
2023-04-27T07:22:34.354Z,44.65
2023-04-27T07:25:00.604Z,44.50
2023-04-27T07:27:26.838Z,43.92
2023-04-27T07:29:53.134Z,41.89
2023-04-27T07:32:19.385Z,41.65
2023-04-27T07:34:53.461Z,42.03
2023-04-27T07:37:20.566Z,40.94
2023-04-27T07:39:46.881Z,39.77
2023-04-27T07:42:13.174Z,40.61
2023-04-27T07:44:39.409Z,41.93
2023-04-27T07:47:05.676Z,43.06
2023-04-27T07:49:31.918Z,40.34
2023-04-27T07:51:58.193Z,40.94
2023-04-27T07:54:24.506Z,41.42
2023-04-27T07:56:50.775Z,41.05
2023-04-27T07:59:17.174Z,40.15
2023-04-27T08:01:43.581Z,41.03
2023-04-27T08:04:10.039Z,41.58
2023-04-27T08:06:37.089Z,41.11
2023-04-27T08:09:03.890Z,41.23
2023-04-27T08:11:30.268Z,41.83
2023-04-27T08:13:56.641Z,41.14
2023-04-27T08:16:23.151Z,40.86
2023-04-27T08:18:49.541Z,41.04
2023-04-27T08:21:15.930Z,40.39
2023-04-27T08:23:42.416Z,40.54
2023-04-27T08:26:08.768Z,39.79
2023-04-27T08:28:35.070Z,40.14
2023-04-27T08:31:01.380Z,40.28
2023-04-27T08:33:27.652Z,39.53
2023-04-27T08:35:53.946Z,38.82
2023-04-27T08:38:20.222Z,40.38
2023-04-27T08:40:46.499Z,37.98
2023-04-27T08:43:12.955Z,36.68
2023-04-27T08:45:39.260Z,37.96
2023-04-27T08:48:05.556Z,38.30
2023-04-27T08:50:31.879Z,39.00
2023-04-27T08:52:58.120Z,38.13
2023-04-27T08:55:24.398Z,38.24
2023-04-27T08:57:50.697Z,37.58
2023-04-27T09:00:16.937Z,36.90
2023-04-27T09:02:43.304Z,36.07
2023-04-27T09:05:09.706Z,37.40
2023-04-27T09:07:36.078Z,36.74
2023-04-27T09:10:02.417Z,37.63
2023-04-27T09:12:28.655Z,37.57
2023-04-27T09:14:54.951Z,36.03
2023-04-27T09:17:21.281Z,35.58
2023-04-27T09:19:47.568Z,35.82
2023-04-27T09:22:13.826Z,35.78
2023-04-27T09:24:40.062Z,36.48
2023-04-27T09:27:06.315Z,35.77
2023-04-27T09:29:32.610Z,35.79
2023-04-27T09:31:59.031Z,35.54
2023-04-27T09:34:25.327Z,35.13
2023-04-27T09:36:51.586Z,34.37
2023-04-27T09:39:17.862Z,34.03
2023-04-27T09:41:44.124Z,36.30
2023-04-27T09:44:10.424Z,35.11
2023-04-27T09:46:36.749Z,34.95
2023-04-27T09:49:03.033Z,34.53
2023-04-27T09:51:29.292Z,34.40
2023-04-27T09:53:55.547Z,35.87
2023-04-27T09:56:21.821Z,35.36
2023-04-27T09:58:48.070Z,36.21
2023-04-27T10:01:14.378Z,36.63
2023-04-27T10:03:40.722Z,35.25
2023-04-27T10:06:07.017Z,35.01
2023-04-27T10:08:33.298Z,35.39
2023-04-27T10:10:59.544Z,35.12
2023-04-27T10:13:25.790Z,35.00
2023-04-27T10:15:52.057Z,33.64
2023-04-27T10:18:18.314Z,33.70
2023-04-27T10:20:44.692Z,35.35
2023-04-27T10:23:10.959Z,33.48
2023-04-27T10:25:37.242Z,33.75
2023-04-27T10:28:03.548Z,33.93
2023-04-27T10:30:29.906Z,33.42
2023-04-27T10:32:56.381Z,34.38
2023-04-27T10:35:22.735Z,34.27
2023-04-27T10:37:49.018Z,32.86
2023-04-27T10:40:15.347Z,32.79
2023-04-27T10:42:41.670Z,32.50
2023-04-27T10:45:07.937Z,32.46
2023-04-27T10:47:34.230Z,31.44
2023-04-27T10:50:00.504Z,33.63
2023-04-27T10:52:26.778Z,31.55
2023-04-27T10:54:53.948Z,30.71
2023-04-27T10:57:20.205Z,31.53
2023-04-27T10:59:46.460Z,31.98
2023-04-27T11:02:12.804Z,31.74
2023-04-27T11:04:39.443Z,33.23
2023-04-27T11:07:06.839Z,32.76
2023-04-27T11:09:33.137Z,32.91
2023-04-27T11:11:59.626Z,31.57
2023-04-27T11:14:26.088Z,32.86
2023-04-27T11:16:52.580Z,32.68
2023-04-27T11:19:19.001Z,31.91
2023-04-27T11:21:45.435Z,31.62
2023-04-27T11:24:13.838Z,30.73
2023-04-27T11:26:41.618Z,31.80
2023-04-27T11:29:08.525Z,30.77
2023-04-27T11:31:35.067Z,31.99
2023-04-27T11:34:01.636Z,31.37
2023-04-27T11:36:28.093Z,30.66
2023-04-27T11:38:54.599Z,30.66
2023-04-27T11:41:20.874Z,31.43
2023-04-27T11:43:48.404Z,31.96
2023-04-27T11:46:14.752Z,31.75
2023-04-27T11:48:41.152Z,31.09
2023-04-27T11:51:08.815Z,34.88
2023-04-27T11:53:35.281Z,33.05
2023-04-27T11:56:01.754Z,32.10
2023-04-27T11:58:28.132Z,32.22
2023-04-27T12:00:54.596Z,30.60
2023-04-27T12:03:21.308Z,32.16
2023-04-27T12:05:47.836Z,31.41
2023-04-27T12:08:14.237Z,30.95
2023-04-27T12:10:40.710Z,29.32
2023-04-27T12:13:07.126Z,31.32
2023-04-27T12:15:33.446Z,30.57
2023-04-27T12:17:59.786Z,29.01
2023-04-27T12:20:26.123Z,29.58
2023-04-27T12:22:52.427Z,29.14
2023-04-27T12:25:18.847Z,30.47
2023-04-27T12:27:45.443Z,30.00
2023-04-27T12:30:11.704Z,28.96
2023-04-27T12:32:38.002Z,29.72
2023-04-27T12:35:04.354Z,27.65
2023-04-27T12:37:30.599Z,27.35
2023-04-27T12:39:56.849Z,28.57
2023-04-27T12:42:23.118Z,28.34
2023-04-27T12:44:49.370Z,27.25
2023-04-27T12:47:27.782Z,27.52
2023-04-27T12:50:01.855Z,27.04
2023-04-27T12:52:28.134Z,28.89
2023-04-27T12:54:54.403Z,26.36
2023-04-27T12:57:20.684Z,27.12
2023-04-27T12:59:46.960Z,26.63
2023-04-27T13:02:13.251Z,26.06
2023-04-27T13:04:39.762Z,26.49
2023-04-27T13:07:06.184Z,27.00
2023-04-27T13:09:32.469Z,27.15
2023-04-27T13:12:01.412Z,26.11
2023-04-27T13:14:28.015Z,26.85
2023-04-27T13:16:54.270Z,27.05
2023-04-27T13:19:20.536Z,27.35
2023-04-27T13:21:46.800Z,28.58
2023-04-27T13:24:13.222Z,26.61
2023-04-27T13:26:40.507Z,27.52
2023-04-27T13:29:06.824Z,27.86
2023-04-27T13:31:33.117Z,27.48
2023-04-27T13:33:59.380Z,27.41
2023-04-27T13:36:25.646Z,26.19
2023-04-27T13:38:51.914Z,28.55
2023-04-27T13:41:18.185Z,26.41
2023-04-27T13:43:44.467Z,26.56
2023-04-27T13:46:10.785Z,25.85
2023-04-27T13:48:37.062Z,25.29
2023-04-27T13:51:03.323Z,26.23
2023-04-27T13:53:29.546Z,26.46
2023-04-27T13:55:55.840Z,25.69
2023-04-27T13:58:24.388Z,25.26
2023-04-27T14:00:52.013Z,25.90
2023-04-27T14:03:20.286Z,26.31
2023-04-27T14:05:46.774Z,25.42
2023-04-27T14:08:13.016Z,26.01
2023-04-27T14:10:39.311Z,26.10
2023-04-27T14:13:05.613Z,25.99
2023-04-27T14:15:31.891Z,26.04
2023-04-27T14:17:58.203Z,27.95
2023-04-27T14:20:24.503Z,27.30
2023-04-27T14:22:50.921Z,26.28
2023-04-27T14:25:17.266Z,26.48
2023-04-27T14:27:43.517Z,27.78
2023-04-27T14:30:09.757Z,26.71
2023-04-27T14:32:36.456Z,27.10
2023-04-27T14:35:02.786Z,27.81
2023-04-27T14:37:29.146Z,28.41
2023-04-27T14:39:55.413Z,28.83
2023-04-27T14:42:21.659Z,28.24
2023-04-27T14:44:49.648Z,28.75
2023-04-27T14:47:16.084Z,27.75
2023-04-27T14:49:42.398Z,28.69
2023-04-27T14:52:08.654Z,28.59
2023-04-27T14:54:34.894Z,28.84
2023-04-27T14:57:01.170Z,29.21
2023-04-27T14:59:27.450Z,28.43
2023-04-27T15:01:53.774Z,28.47
2023-04-27T15:04:20.228Z,29.04
2023-04-27T15:06:46.599Z,29.20
2023-04-27T15:09:12.987Z,30.35
2023-04-27T15:11:39.340Z,29.01
2023-04-27T15:14:05.599Z,28.46
2023-04-27T15:16:33.172Z,29.90
2023-04-27T15:18:59.491Z,29.95
2023-04-27T15:21:25.748Z,28.84
2023-04-27T15:23:52.010Z,28.41
2023-04-27T15:26:18.246Z,29.23
2023-04-27T15:28:44.520Z,28.41
2023-04-27T15:31:10.823Z,28.29
2023-04-27T15:33:37.129Z,28.26
2023-04-27T15:36:03.362Z,28.63
2023-04-27T15:38:29.627Z,28.52
2023-04-27T15:40:55.863Z,28.37
2023-04-27T15:43:22.568Z,28.41
2023-04-27T15:45:49.216Z,28.17
2023-04-27T15:48:15.618Z,28.79
2023-04-27T15:50:41.918Z,28.06
2023-04-27T15:53:08.150Z,28.02
2023-04-27T15:55:34.418Z,27.90
2023-04-27T15:58:00.665Z,28.96
2023-04-27T16:00:26.903Z,28.34
2023-04-27T16:02:53.415Z,28.36
2023-04-27T16:05:19.822Z,28.58
2023-04-27T16:07:46.073Z,28.59
2023-04-27T16:10:12.547Z,28.80
2023-04-27T16:12:38.846Z,28.60
2023-04-27T16:15:05.104Z,29.10
2023-04-27T16:17:31.416Z,29.71
2023-04-27T16:19:57.801Z,29.45
2023-04-27T16:22:24.044Z,28.82
2023-04-27T16:24:50.295Z,30.12
2023-04-27T16:27:16.527Z,29.15
2023-04-27T16:29:42.783Z,29.84
2023-04-27T16:32:09.120Z,29.86
2023-04-27T16:34:35.421Z,30.07
2023-04-27T16:37:01.678Z,30.54
2023-04-27T16:39:27.971Z,29.37
2023-04-27T16:41:54.219Z,29.24
2023-04-27T16:44:20.489Z,29.75
2023-04-27T16:46:46.770Z,30.50
2023-04-27T16:49:13.164Z,30.70
2023-04-27T16:51:39.538Z,31.56
2023-04-27T16:54:05.836Z,30.83
2023-04-27T16:56:32.080Z,30.58
2023-04-27T16:58:58.339Z,30.86
2023-04-27T17:01:24.622Z,31.36
2023-04-27T17:03:51.069Z,32.70
2023-04-27T17:06:18.135Z,32.48
2023-04-27T17:08:44.404Z,32.72
2023-04-27T17:11:10.670Z,33.19
2023-04-27T17:13:36.967Z,34.22
2023-04-27T17:16:03.503Z,36.09
2023-04-27T17:18:31.580Z,36.01
2023-04-27T17:20:57.806Z,34.00
2023-04-27T17:23:24.071Z,33.75
2023-04-27T17:25:50.312Z,34.09
2023-04-27T17:28:16.598Z,34.82
2023-04-27T17:30:42.871Z,34.99
2023-04-27T17:33:09.175Z,37.47
2023-04-27T17:35:35.463Z,38.82
2023-04-27T17:38:01.750Z,38.97
2023-04-27T17:40:28.064Z,39.01
2023-04-27T17:42:54.304Z,39.22
2023-04-27T17:45:20.608Z,39.65
2023-04-27T17:47:46.969Z,39.29
2023-04-27T17:50:13.249Z,39.83
2023-04-27T17:52:39.499Z,40.98
2023-04-27T17:55:06.650Z,40.26
2023-04-27T17:57:32.978Z,40.62
2023-04-27T17:59:59.368Z,40.13
2023-04-27T18:02:25.722Z,40.25
2023-04-27T18:04:52.056Z,40.86
2023-04-27T18:07:18.411Z,41.46
2023-04-27T18:09:44.656Z,40.91
2023-04-27T18:12:11.116Z,41.01
2023-04-27T18:14:37.604Z,41.49
2023-04-27T18:17:03.890Z,41.71
2023-04-27T18:19:30.171Z,41.12
2023-04-27T18:21:56.463Z,41.49
2023-04-27T18:24:22.717Z,42.09
2023-04-27T18:26:48.982Z,41.66
2023-04-27T18:29:15.338Z,41.91
2023-04-27T18:31:41.918Z,42.14
2023-04-27T18:34:08.208Z,42.42
2023-04-27T18:36:34.452Z,42.79
2023-04-27T18:39:00.755Z,41.82
2023-04-27T18:41:27.024Z,41.45
2023-04-27T18:43:53.301Z,41.83
2023-04-27T18:46:19.588Z,41.36
2023-04-27T18:48:45.887Z,41.18
2023-04-27T18:51:12.169Z,41.16
2023-04-27T18:53:38.426Z,41.00
2023-04-27T18:56:05.242Z,40.78
2023-04-27T18:58:32.035Z,41.48
2023-04-27T19:00:58.312Z,41.97
2023-04-27T19:03:24.814Z,41.67
2023-04-27T19:05:51.317Z,41.81
2023-04-27T19:08:17.566Z,42.20
2023-04-27T19:10:43.828Z,42.95
2023-04-27T19:13:10.084Z,43.21
2023-04-27T19:15:36.365Z,41.95
2023-04-27T19:18:10.462Z,42.69
2023-04-27T19:20:37.884Z,42.32
2023-04-27T19:23:04.184Z,41.96
2023-04-27T19:25:30.471Z,42.09
2023-04-27T19:27:56.757Z,42.79
2023-04-27T19:30:23.019Z,41.79
2023-04-27T19:32:49.328Z,42.21
2023-04-27T19:35:15.661Z,41.91
2023-04-27T19:37:41.942Z,41.51
2023-04-27T19:40:08.191Z,41.79
2023-04-27T19:42:34.459Z,41.52
2023-04-27T19:45:00.736Z,41.22
2023-04-27T19:47:27.019Z,41.41
2023-04-27T19:49:53.368Z,40.75
2023-04-27T19:52:19.644Z,41.25
2023-04-27T19:54:45.968Z,41.53
2023-04-27T19:57:12.221Z,41.28
2023-04-27T19:59:38.488Z,41.03
2023-04-27T20:02:04.839Z,41.49
2023-04-27T20:04:31.331Z,41.30
2023-04-27T20:06:57.715Z,41.23
2023-04-27T20:09:24.013Z,41.51
2023-04-27T20:11:50.286Z,41.60
2023-04-27T20:14:16.792Z,41.73
2023-04-27T20:16:43.347Z,41.69
2023-04-27T20:19:09.660Z,41.50
2023-04-27T20:21:35.889Z,41.40
2023-04-27T20:24:02.154Z,41.70
2023-04-27T20:26:28.397Z,41.83
2023-04-27T20:28:54.665Z,41.15
2023-04-27T20:31:20.991Z,41.55
2023-04-27T20:33:47.244Z,41.29
2023-04-27T20:36:18.006Z,41.74
2023-04-27T20:38:44.646Z,41.60
2023-04-27T20:41:10.924Z,41.74
2023-04-27T20:43:37.330Z,42.12
2023-04-27T20:46:03.622Z,42.05
2023-04-27T20:48:29.898Z,42.09
2023-04-27T20:50:56.184Z,42.13
2023-04-27T20:53:22.463Z,42.17
2023-04-27T20:55:48.773Z,41.75
2023-04-27T20:58:15.079Z,41.96
2023-04-27T21:00:41.378Z,41.79
2023-04-27T21:03:07.776Z,41.93
2023-04-27T21:05:34.086Z,41.99
2023-04-27T21:08:00.330Z,41.50
2023-04-27T21:10:26.585Z,40.80
2023-04-27T21:12:52.825Z,41.26
2023-04-27T21:15:19.055Z,40.67
2023-04-27T21:17:45.485Z,40.76
2023-04-27T21:20:11.788Z,40.93
2023-04-27T21:22:38.039Z,41.08
2023-04-27T21:25:04.278Z,41.55
2023-04-27T21:27:30.515Z,41.48
2023-04-27T21:29:56.770Z,41.10
2023-04-27T21:32:23.009Z,41.26
2023-04-27T21:34:49.243Z,41.59
2023-04-27T21:37:15.636Z,41.25
2023-04-27T21:39:41.897Z,41.82
2023-04-27T21:42:08.145Z,42.00
2023-04-27T21:44:34.384Z,42.49
2023-04-27T21:47:00.683Z,41.96
2023-04-27T21:49:27.092Z,41.80
2023-04-27T21:51:53.342Z,41.89
2023-04-27T21:54:19.607Z,41.37
2023-04-27T21:56:45.895Z,41.64
2023-04-27T21:59:12.219Z,42.36
2023-04-27T22:01:38.459Z,42.01
2023-04-27T22:04:04.943Z,42.46
2023-04-27T22:06:31.378Z,42.76
2023-04-27T22:08:57.795Z,43.00
2023-04-27T22:11:24.235Z,42.93
2023-04-27T22:13:50.483Z,43.03
2023-04-27T22:16:16.803Z,42.78
2023-04-27T22:18:43.115Z,42.79
2023-04-27T22:21:09.410Z,43.02
2023-04-27T22:23:35.700Z,43.40
2023-04-27T22:26:03.818Z,42.70
2023-04-27T22:28:30.123Z,42.43
2023-04-27T22:30:56.387Z,42.44
2023-04-27T22:33:22.680Z,42.51
2023-04-27T22:35:48.961Z,42.17
2023-04-27T22:38:15.256Z,41.58
2023-04-27T22:40:41.544Z,41.95
2023-04-27T22:43:07.792Z,41.78
2023-04-27T22:45:34.918Z,42.15
2023-04-27T22:48:02.082Z,41.98
2023-04-27T22:50:28.413Z,41.53
2023-04-27T22:52:54.670Z,41.00
2023-04-27T22:55:20.930Z,41.16
2023-04-27T22:57:47.193Z,43.27
2023-04-27T23:00:13.454Z,44.52
2023-04-27T23:02:39.862Z,43.31
2023-04-27T23:05:06.254Z,41.33
2023-04-27T23:07:32.508Z,40.96
2023-04-27T23:09:58.761Z,41.07
2023-04-27T23:12:25.034Z,40.68
2023-04-27T23:14:51.287Z,41.28
2023-04-27T23:17:17.625Z,41.60
2023-04-27T23:19:44.068Z,42.82
2023-04-27T23:22:10.334Z,42.29
2023-04-27T23:24:36.587Z,41.97
2023-04-27T23:27:02.852Z,41.78
2023-04-27T23:29:29.136Z,41.65
2023-04-27T23:31:55.462Z,42.26
2023-04-27T23:34:21.721Z,42.66
2023-04-27T23:36:48.050Z,42.90
2023-04-27T23:39:14.282Z,43.38
2023-04-27T23:41:40.541Z,44.03
2023-04-27T23:44:06.797Z,44.66
2023-04-27T23:46:33.107Z,44.41
2023-04-27T23:48:59.393Z,44.35
2023-04-27T23:51:25.627Z,44.60
2023-04-27T23:53:51.901Z,44.93
2023-04-27T23:56:18.221Z,45.43
2023-04-27T23:58:44.458Z,45.08
